createdAt,value
2024-04-11T00:00:33.058Z,6.3
2024-04-11T00:03:33.163Z,6.3
2024-04-11T00:06:33.062Z,6.3
2024-04-11T00:09:33.069Z,6.3
2024-04-11T00:12:33.346Z,6.4
2024-04-11T00:15:33.071Z,6.4
2024-04-11T00:18:33.278Z,6.4
2024-04-11T00:21:33.068Z,6.3
2024-04-11T00:24:33.068Z,6.3
2024-04-11T00:27:33.079Z,6.2
2024-04-11T00:30:33.110Z,6
2024-04-11T00:33:33.246Z,6
2024-04-11T00:36:33.074Z,5.9
2024-04-11T00:39:33.101Z,5.8
2024-04-11T00:42:33.100Z,5.7
2024-04-11T00:45:33.094Z,5.6
2024-04-11T00:48:33.309Z,5.6
2024-04-11T00:51:33.082Z,5.6
2024-04-11T00:54:33.090Z,5.6
2024-04-11T00:57:33.107Z,5.6
2024-04-11T01:00:33.158Z,5.6
2024-04-11T01:03:33.259Z,5.6
2024-04-11T01:06:33.087Z,5.5
2024-04-11T01:09:33.098Z,5.4
2024-04-11T01:12:33.108Z,5.4
2024-04-11T01:15:33.091Z,5.3
2024-04-11T01:18:33.182Z,5.3
2024-04-11T01:21:33.099Z,5.2
2024-04-11T01:24:33.095Z,5.2
2024-04-11T01:27:33.117Z,5.2
2024-04-11T01:30:33.105Z,5.3
2024-04-11T01:33:33.172Z,5.3
2024-04-11T01:36:33.114Z,5.3
2024-04-11T01:39:33.212Z,5.3
2024-04-11T01:42:33.139Z,5.3
2024-04-11T01:45:33.112Z,5.3
2024-04-11T01:48:33.199Z,5.3
2024-04-11T01:51:33.149Z,5.2
2024-04-11T01:54:33.136Z,5.2
2024-04-11T01:57:33.129Z,5.2
2024-04-11T02:00:33.141Z,5.2
2024-04-11T02:03:33.361Z,5.2
2024-04-11T02:06:33.138Z,5.3
2024-04-11T02:09:33.142Z,5.3
2024-04-11T02:12:33.367Z,5.3
2024-04-11T02:15:33.149Z,5.3
2024-04-11T02:18:33.192Z,5.3
2024-04-11T02:21:33.144Z,5.3
2024-04-11T02:24:33.158Z,5.3
2024-04-11T02:27:33.173Z,5.2
2024-04-11T02:30:33.146Z,5.3
2024-04-11T02:33:33.311Z,5.3
2024-04-11T02:36:33.176Z,5.4
2024-04-11T02:39:33.161Z,5.4
2024-04-11T02:42:33.190Z,5.5
2024-04-11T02:45:33.176Z,5.6
2024-04-11T02:48:33.245Z,5.6
2024-04-11T02:51:33.190Z,5.6
2024-04-11T02:54:33.182Z,5.6
2024-04-11T02:57:33.196Z,5.6
2024-04-11T03:00:33.212Z,5.7
2024-04-11T03:03:33.225Z,5.7
2024-04-11T03:06:33.193Z,5.7
2024-04-11T03:09:33.188Z,5.8
2024-04-11T03:12:33.339Z,5.8
2024-04-11T03:15:33.205Z,5.9
2024-04-11T03:18:36.018Z,5.9
2024-04-11T03:21:33.208Z,6
2024-04-11T03:24:33.208Z,6
2024-04-11T03:27:33.221Z,6
2024-04-11T03:30:33.211Z,6
2024-04-11T03:33:33.406Z,6.2
2024-04-11T03:36:33.224Z,6.4
2024-04-11T03:39:33.230Z,6.5
2024-04-11T03:42:33.375Z,6.6
2024-04-11T03:45:33.216Z,6.7
2024-04-11T03:48:33.299Z,6.7
2024-04-11T03:51:33.239Z,6.7
2024-04-11T03:54:33.233Z,6.7
2024-04-11T03:57:33.268Z,6.7
2024-04-11T04:00:33.245Z,6.7
2024-04-11T04:03:33.484Z,6.6
2024-04-11T04:06:33.260Z,6.6
2024-04-11T04:09:33.244Z,6.6
2024-04-11T04:12:33.330Z,6.6
2024-04-11T04:15:33.258Z,6.5
2024-04-11T04:18:33.319Z,6.6
2024-04-11T04:21:33.256Z,6.5
2024-04-11T04:24:33.320Z,6.5
2024-04-11T04:27:33.277Z,6.5
2024-04-11T04:30:33.270Z,6.5
2024-04-11T04:33:33.403Z,6.5
2024-04-11T04:36:33.283Z,6.4
2024-04-11T04:39:33.275Z,6.4
2024-04-11T04:42:33.455Z,6.4
2024-04-11T04:45:33.282Z,6.5
2024-04-11T04:48:33.363Z,6.6
2024-04-11T04:51:33.315Z,6.7
2024-04-11T04:54:33.292Z,6.8
2024-04-11T04:57:33.332Z,6.9
2024-04-11T05:00:33.321Z,7.1
2024-04-11T05:03:33.493Z,7.2
2024-04-11T05:06:33.307Z,7.3
2024-04-11T05:09:33.300Z,7.4
2024-04-11T05:12:33.368Z,7.5
2024-04-11T05:15:33.317Z,7.7
2024-04-11T05:18:33.377Z,7.8
2024-04-11T05:21:33.319Z,7.9
2024-04-11T05:24:33.320Z,8
2024-04-11T05:27:33.338Z,8.1
2024-04-11T05:30:33.330Z,8.3
2024-04-11T05:33:33.462Z,8.4
2024-04-11T05:36:33.340Z,8.5
2024-04-11T05:39:33.347Z,8.7
2024-04-11T05:42:33.371Z,9
2024-04-11T05:45:33.357Z,9.3
2024-04-11T05:48:33.533Z,9.6
2024-04-11T05:51:33.374Z,9.9
2024-04-11T05:54:33.364Z,10.2
2024-04-11T05:57:33.378Z,10.5
2024-04-11T06:00:33.352Z,10.9
2024-04-11T06:03:33.434Z,11.3
2024-04-11T06:06:33.401Z,11.7
2024-04-11T06:09:33.397Z,12.1
2024-04-11T06:12:34.745Z,12.4
2024-04-11T06:15:33.409Z,12.6
2024-04-11T06:18:33.504Z,12.5
2024-04-11T06:21:34.229Z,12.5
2024-04-11T06:24:33.414Z,12.6
2024-04-11T06:27:33.432Z,12.7
2024-04-11T06:30:33.435Z,12.7
2024-04-11T06:33:33.724Z,12.8
2024-04-11T06:36:33.431Z,12.9
2024-04-11T06:39:33.753Z,13
2024-04-11T06:42:33.458Z,13.1
2024-04-11T06:45:33.447Z,13.3
2024-04-11T06:48:33.561Z,13.4
2024-04-11T06:51:35.024Z,13.6
2024-04-11T06:54:33.455Z,13.8
2024-04-11T06:57:33.450Z,13.8
2024-04-11T07:00:33.482Z,13.8
2024-04-11T07:03:33.593Z,13.8
2024-04-11T07:06:33.473Z,13.8
2024-04-11T07:09:33.480Z,13.6
2024-04-11T07:12:33.501Z,13.6
2024-04-11T07:15:33.489Z,13.6
2024-04-11T07:18:33.524Z,13.7
2024-04-11T07:21:33.483Z,13.7
2024-04-11T07:24:33.494Z,13.7
2024-04-11T07:27:33.507Z,13.7
2024-04-11T07:30:33.489Z,13.8
2024-04-11T07:33:33.591Z,13.8
2024-04-11T07:36:33.506Z,13.8
2024-04-11T07:39:33.510Z,13.9
2024-04-11T07:42:35.211Z,14
2024-04-11T07:45:33.505Z,14
2024-04-11T07:48:33.729Z,14.2
2024-04-11T07:51:33.521Z,14.4
2024-04-11T07:54:37.456Z,14.6
2024-04-11T07:57:33.532Z,14.8
2024-04-11T08:00:33.518Z,14.9
2024-04-11T08:03:33.517Z,15
2024-04-11T08:06:33.597Z,15.1
2024-04-11T08:09:33.539Z,14.9
2024-04-11T08:12:33.543Z,14.9
2024-04-11T08:15:33.539Z,14.8
2024-04-11T08:18:33.539Z,14.8
2024-04-11T08:21:33.563Z,14.8
2024-04-11T08:24:33.537Z,14.8
2024-04-11T08:27:33.553Z,14.6
2024-04-11T08:30:33.545Z,14.5
2024-04-11T08:33:33.660Z,14.5
2024-04-11T08:36:33.550Z,14.3
2024-04-11T08:39:33.556Z,14.2
2024-04-11T08:42:33.565Z,14.1
2024-04-11T08:45:33.554Z,13.9
2024-04-11T08:48:33.668Z,13.9
2024-04-11T08:51:34.071Z,13.8
2024-04-11T08:54:33.577Z,13.8
2024-04-11T08:57:33.582Z,13.8
2024-04-11T09:00:33.653Z,13.8
2024-04-11T09:03:33.654Z,13.8
2024-04-11T09:06:33.569Z,13.8
2024-04-11T09:09:33.574Z,13.8
2024-04-11T09:12:33.570Z,13.8
2024-04-11T09:15:33.568Z,13.8
2024-04-11T09:18:33.643Z,13.8
2024-04-11T09:21:33.587Z,13.8
2024-04-11T09:24:33.586Z,13.8
2024-04-11T09:27:33.575Z,13.8
2024-04-11T09:30:33.600Z,13.8
2024-04-11T09:33:33.628Z,13.9
2024-04-11T09:36:33.579Z,14
2024-04-11T09:39:33.592Z,14.2
2024-04-11T09:42:33.592Z,14.3
2024-04-11T09:45:33.600Z,14.3
2024-04-11T09:48:33.737Z,14.4
2024-04-11T09:51:33.584Z,14.5
2024-04-11T09:54:33.595Z,14.5
2024-04-11T09:57:33.601Z,14.6
2024-04-11T10:00:33.642Z,14.6
2024-04-11T10:03:33.677Z,14.6
2024-04-11T10:06:33.610Z,14.7
2024-04-11T10:09:33.611Z,14.8
2024-04-11T10:12:33.658Z,14.8
2024-04-11T10:15:33.601Z,14.9
2024-04-11T10:18:34.252Z,15
2024-04-11T10:21:36.846Z,15
2024-04-11T10:24:33.948Z,15.1
2024-04-11T10:27:33.624Z,15.1
2024-04-11T10:30:33.610Z,15.2
2024-04-11T10:33:33.655Z,15.2
2024-04-11T10:36:33.620Z,15.1
2024-04-11T10:39:33.655Z,15
2024-04-11T10:42:33.614Z,15
2024-04-11T10:45:33.617Z,15.1
2024-04-11T10:48:33.764Z,15.3
2024-04-11T10:51:33.625Z,15.6
2024-04-11T10:54:33.623Z,15.9
2024-04-11T10:57:33.626Z,16.2
2024-04-11T11:00:33.623Z,16.3
2024-04-11T11:03:33.667Z,16.4
2024-04-11T11:06:34.254Z,16.4
2024-04-11T11:09:33.632Z,16.5
2024-04-11T11:12:33.634Z,16.5
2024-04-11T11:15:33.635Z,16.5
2024-04-11T11:18:33.668Z,16.6
2024-04-11T11:21:33.655Z,16.5
2024-04-11T11:24:33.632Z,16.3
2024-04-11T11:27:34.129Z,16.2
2024-04-11T11:30:33.643Z,16.2
2024-04-11T11:33:33.721Z,16.2
2024-04-11T11:36:33.659Z,16
2024-04-11T11:39:33.652Z,15.9
2024-04-11T11:42:33.780Z,15.7
2024-04-11T11:45:33.660Z,15.6
2024-04-11T11:48:33.786Z,15.6
2024-04-11T11:51:33.661Z,15.6
2024-04-11T11:54:33.680Z,15.6
2024-04-11T11:57:33.668Z,15.6
2024-04-11T12:00:34.579Z,15.7
2024-04-11T12:03:34.993Z,15.7
2024-04-11T12:06:33.665Z,15.6
2024-04-11T12:09:33.669Z,15.6
2024-04-11T12:12:38.525Z,15.6
2024-04-11T12:15:33.666Z,15.7
2024-04-11T12:18:33.841Z,15.8
2024-04-11T12:21:33.685Z,16
2024-04-11T12:24:33.680Z,16.1
2024-04-11T12:27:33.680Z,16.2
2024-04-11T12:30:33.688Z,16.4
2024-04-11T12:33:33.719Z,16.4
2024-04-11T12:36:33.730Z,16.3
2024-04-11T12:39:33.698Z,16.3
2024-04-11T12:42:33.693Z,16.4
2024-04-11T12:45:33.702Z,16.4
2024-04-11T12:48:33.727Z,16.4
2024-04-11T12:51:33.707Z,16.4
2024-04-11T12:54:33.698Z,16.5
2024-04-11T12:57:33.707Z,16.6
2024-04-11T13:00:33.761Z,16.7
2024-04-11T13:03:33.801Z,16.8
2024-04-11T13:06:33.711Z,16.8
2024-04-11T13:09:33.721Z,16.9
2024-04-11T13:12:33.733Z,17.2
2024-04-11T13:15:33.731Z,17.3
2024-04-11T13:18:33.802Z,17.4
2024-04-11T13:21:33.908Z,17.4
2024-04-11T13:24:33.730Z,17.2
2024-04-11T13:27:33.731Z,16.9
2024-04-11T13:30:33.756Z,16.8
2024-04-11T13:33:33.920Z,16.7
2024-04-11T13:36:33.751Z,16.8
2024-04-11T13:39:33.737Z,16.8
2024-04-11T13:42:33.749Z,16.9
2024-04-11T13:45:33.752Z,17.1
2024-04-11T13:48:33.845Z,17.3
2024-04-11T13:51:33.758Z,17.4
2024-04-11T13:54:33.831Z,17.5
2024-04-11T13:57:33.886Z,17.4
2024-04-11T14:00:33.752Z,17.3
2024-04-11T14:03:33.859Z,17.3
2024-04-11T14:06:33.759Z,17.1
2024-04-11T14:09:33.759Z,17.1
2024-04-11T14:12:33.769Z,17.2
2024-04-11T14:15:33.767Z,17.3
2024-04-11T14:18:33.809Z,17.4
2024-04-11T14:21:33.768Z,17.4
2024-04-11T14:24:33.781Z,17.5
2024-04-11T14:27:33.793Z,17.5
2024-04-11T14:30:33.801Z,17.5
2024-04-11T14:33:33.900Z,17.5
2024-04-11T14:36:33.786Z,17.6
2024-04-11T14:39:33.882Z,17.6
2024-04-11T14:42:33.806Z,17.6
2024-04-11T14:45:33.794Z,17.6
2024-04-11T14:48:33.830Z,17.7
2024-04-11T14:51:33.826Z,17.9
2024-04-11T14:54:33.812Z,18.1
2024-04-11T14:57:33.823Z,18.2
2024-04-11T15:00:33.828Z,18.2
2024-04-11T15:03:33.889Z,18.2
2024-04-11T15:06:33.820Z,18.1
2024-04-11T15:09:33.838Z,18.1
2024-04-11T15:12:33.827Z,18.1
2024-04-11T15:15:33.862Z,18.1
2024-04-11T15:18:33.910Z,17.8
2024-04-11T15:21:33.843Z,17.7
2024-04-11T15:24:33.848Z,17.7
2024-04-11T15:27:33.848Z,17.7
2024-04-11T15:30:34.002Z,17.6
2024-04-11T15:33:34.073Z,17.4
2024-04-11T15:36:33.866Z,17.1
2024-04-11T15:39:33.858Z,16.9
2024-04-11T15:42:34.460Z,17
2024-04-11T15:45:33.866Z,17
2024-04-11T15:48:33.896Z,17
2024-04-11T15:51:33.865Z,16.9
2024-04-11T15:54:33.869Z,16.8
2024-04-11T15:57:33.883Z,16.9
2024-04-11T16:00:33.886Z,16.9
2024-04-11T16:03:33.994Z,16.9
2024-04-11T16:06:33.914Z,17
2024-04-11T16:09:33.893Z,17
2024-04-11T16:12:33.949Z,17
2024-04-11T16:15:33.890Z,17
2024-04-11T16:18:34.653Z,17
2024-04-11T16:21:33.908Z,17
2024-04-11T16:24:33.900Z,17
2024-04-11T16:27:33.897Z,17
2024-04-11T16:30:33.911Z,17
2024-04-11T16:33:33.953Z,16.8
2024-04-11T16:36:33.912Z,16.7
2024-04-11T16:39:33.914Z,16.6
2024-04-11T16:42:33.924Z,16.4
2024-04-11T16:45:33.931Z,16.3
2024-04-11T16:48:34.014Z,16.2
2024-04-11T16:51:33.942Z,16
2024-04-11T16:54:33.932Z,16
2024-04-11T16:57:34.154Z,16
2024-04-11T17:00:34.000Z,15.9
2024-04-11T17:03:34.049Z,15.9
2024-04-11T17:06:33.952Z,15.9
2024-04-11T17:09:33.964Z,15.8
2024-04-11T17:12:33.980Z,15.8
2024-04-11T17:15:33.967Z,15.7
2024-04-11T17:18:34.001Z,15.6
2024-04-11T17:21:33.986Z,15.5
2024-04-11T17:24:33.984Z,15.5
2024-04-11T17:27:33.984Z,15.4
2024-04-11T17:30:33.978Z,15.4
2024-04-11T17:33:34.052Z,15.5
2024-04-11T17:36:33.989Z,15.5
2024-04-11T17:39:34.049Z,15.6
2024-04-11T17:42:34.005Z,15.6
2024-04-11T17:45:34.019Z,15.6
2024-04-11T17:48:34.123Z,15.6
2024-04-11T17:51:34.030Z,15.5
2024-04-11T17:54:34.003Z,15.5
2024-04-11T17:57:34.010Z,15.5
2024-04-11T18:00:34.030Z,15.5
2024-04-11T18:03:34.089Z,15.5
2024-04-11T18:06:34.023Z,15.4
2024-04-11T18:09:34.032Z,15.4
2024-04-11T18:12:34.056Z,15.3
2024-04-11T18:15:34.056Z,15.3
2024-04-11T18:18:34.175Z,15.3
2024-04-11T18:21:34.064Z,15.3
2024-04-11T18:24:34.130Z,15.2
2024-04-11T18:27:34.085Z,15.2
2024-04-11T18:30:34.202Z,15.2
2024-04-11T18:33:34.130Z,15.2
2024-04-11T18:36:34.189Z,15.2
2024-04-11T18:39:34.221Z,15.2
2024-04-11T18:42:34.083Z,15.1
2024-04-11T18:45:34.091Z,15.1
2024-04-11T18:48:34.163Z,15.1
2024-04-11T18:51:34.204Z,15.1
2024-04-11T18:54:34.102Z,15.1
2024-04-11T18:57:34.106Z,15.1
2024-04-11T19:00:34.109Z,15.1
2024-04-11T19:03:34.146Z,15.1
2024-04-11T19:06:34.121Z,15.1
2024-04-11T19:09:34.127Z,15
2024-04-11T19:12:34.113Z,15
2024-04-11T19:15:34.132Z,15
2024-04-11T19:18:34.171Z,15
2024-04-11T19:21:34.140Z,15
2024-04-11T19:24:34.148Z,15
2024-04-11T19:27:34.143Z,15
2024-04-11T19:30:34.158Z,15
2024-04-11T19:33:34.204Z,15
2024-04-11T19:36:34.164Z,14.9
2024-04-11T19:39:34.192Z,14.9
2024-04-11T19:42:34.175Z,14.9
2024-04-11T19:45:34.170Z,14.9
2024-04-11T19:48:34.252Z,14.9
2024-04-11T19:51:34.189Z,14.8
2024-04-11T19:54:34.181Z,14.7
2024-04-11T19:57:34.200Z,14.7
2024-04-11T20:00:34.578Z,14.5
2024-04-11T20:03:34.260Z,14.4
2024-04-11T20:06:34.205Z,14.3
2024-04-11T20:09:34.200Z,14.2
2024-04-11T20:12:34.199Z,14.1
2024-04-11T20:15:34.231Z,14
2024-04-11T20:18:34.309Z,13.9
2024-04-11T20:21:34.214Z,13.8
2024-04-11T20:24:34.219Z,13.8
2024-04-11T20:27:34.222Z,13.7
2024-04-11T20:30:34.223Z,13.6
2024-04-11T20:33:34.256Z,13.5
2024-04-11T20:36:34.219Z,13.5
2024-04-11T20:39:34.238Z,13.4
2024-04-11T20:42:34.231Z,13.2
2024-04-11T20:45:34.230Z,13.1
2024-04-11T20:48:34.401Z,13
2024-04-11T20:51:34.239Z,12.9
2024-04-11T20:54:34.252Z,12.8
2024-04-11T20:57:34.242Z,12.8
2024-04-11T21:00:34.250Z,12.8
2024-04-11T21:03:34.291Z,12.9
2024-04-11T21:06:34.240Z,12.9
2024-04-11T21:09:34.253Z,13
2024-04-11T21:12:34.298Z,13.1
2024-04-11T21:15:34.259Z,13.1
2024-04-11T21:18:34.523Z,13.2
2024-04-11T21:21:34.260Z,13.2
2024-04-11T21:24:34.288Z,13.3
2024-04-11T21:27:34.286Z,13.3
2024-04-11T21:30:34.294Z,13.3
2024-04-11T21:33:34.726Z,13.4
2024-04-11T21:36:34.285Z,13.4
2024-04-11T21:39:34.296Z,13.4
2024-04-11T21:42:34.404Z,13.4
2024-04-11T21:45:34.317Z,13.5
2024-04-11T21:48:34.498Z,13.5
2024-04-11T21:51:34.339Z,13.5
2024-04-11T21:54:36.812Z,13.5
2024-04-11T21:57:34.355Z,13.5
2024-04-11T22:00:34.348Z,13.5
2024-04-11T22:03:34.431Z,13.5
2024-04-11T22:06:34.348Z,13.5
2024-04-11T22:09:34.346Z,13.5
2024-04-11T22:12:34.488Z,13.5
2024-04-11T22:15:34.383Z,13.5
2024-04-11T22:18:34.536Z,13.5
2024-04-11T22:21:34.373Z,13.5
2024-04-11T22:24:34.382Z,13.5
2024-04-11T22:27:34.404Z,13.5
2024-04-11T22:30:34.406Z,13.5
2024-04-11T22:33:34.479Z,13.5
2024-04-11T22:36:34.421Z,13.5
2024-04-11T22:39:34.423Z,13.5
2024-04-11T22:42:34.421Z,13.5
2024-04-11T22:45:34.418Z,13.5
2024-04-11T22:48:34.482Z,13.5
2024-04-11T22:51:34.441Z,13.5
2024-04-11T22:54:34.451Z,13.5
2024-04-11T22:57:34.453Z,13.5
2024-04-11T23:00:34.474Z,13.6
2024-04-11T23:03:34.498Z,13.5
2024-04-11T23:06:34.468Z,13.6
2024-04-11T23:09:34.495Z,13.6
2024-04-11T23:12:34.483Z,13.6
2024-04-11T23:15:34.491Z,13.6
2024-04-11T23:18:34.590Z,13.6
2024-04-11T23:21:34.502Z,13.6
2024-04-11T23:24:34.504Z,13.6
2024-04-11T23:27:34.514Z,13.6
2024-04-11T23:30:34.515Z,13.6
2024-04-11T23:33:34.836Z,13.7
2024-04-11T23:36:34.524Z,13.7
2024-04-11T23:39:37.656Z,13.6
2024-04-11T23:42:34.562Z,13.7
2024-04-11T23:45:34.567Z,13.7
2024-04-11T23:48:34.691Z,13.7
2024-04-11T23:51:34.566Z,13.7
2024-04-11T23:54:34.572Z,13.7
2024-04-11T23:57:34.577Z,13.7
